sensor_id;sensor_type;location;lat;lon;timestamp;P1;durP1;ratioP1;P2;durP2;ratioP2
57899;SDS011;60605;53.716;19.940;2023-04-03T00:02:52;1.60;;;1.50;;
57899;SDS011;60605;53.716;19.940;2023-04-03T00:07:54;3.40;;;1.80;;
57899;SDS011;60605;53.716;19.940;2023-04-03T00:12:56;2.60;;;1.90;;
57899;SDS011;60605;53.716;19.940;2023-04-03T00:17:58;3.70;;;1.80;;
57899;SDS011;60605;53.716;19.940;2023-04-03T00:23:01;2.00;;;1.80;;
57899;SDS011;60605;53.716;19.940;2023-04-03T00:28:04;4.30;;;1.50;;
57899;SDS011;60605;53.716;19.940;2023-04-03T00:33:06;2.90;;;1.80;;
57899;SDS011;60605;53.716;19.940;2023-04-03T00:38:08;1.40;;;1.30;;
57899;SDS011;60605;53.716;19.940;2023-04-03T00:43:17;4.00;;;1.90;;
57899;SDS011;60605;53.716;19.940;2023-04-03T00:48:36;3.80;;;1.80;;
57899;SDS011;60605;53.716;19.940;2023-04-03T00:53:47;2.90;;;1.80;;
57899;SDS011;60605;53.716;19.940;2023-04-03T00:58:56;2.20;;;1.50;;
57899;SDS011;60605;53.716;19.940;2023-04-03T01:04:03;1.70;;;1.60;;
57899;SDS011;60605;53.716;19.940;2023-04-03T01:09:07;3.80;;;2.10;;
57899;SDS011;60605;53.716;19.940;2023-04-03T01:14:09;1.60;;;1.50;;
57899;SDS011;60605;53.716;19.940;2023-04-03T01:19:11;2.60;;;1.80;;
57899;SDS011;60605;53.716;19.940;2023-04-03T01:29:33;2.50;;;1.60;;
57899;SDS011;60605;53.716;19.940;2023-04-03T01:34:35;2.90;;;2.00;;
57899;SDS011;60605;53.716;19.940;2023-04-03T01:39:37;2.00;;;1.50;;
57899;SDS011;60605;53.716;19.940;2023-04-03T01:44:39;2.10;;;1.90;;
57899;SDS011;60605;53.716;19.940;2023-04-03T01:49:41;1.80;;;1.70;;
57899;SDS011;60605;53.716;19.940;2023-04-03T01:54:43;3.30;;;2.10;;
57899;SDS011;60605;53.716;19.940;2023-04-03T01:59:45;4.20;;;1.80;;
57899;SDS011;60605;53.716;19.940;2023-04-03T02:04:47;2.50;;;1.60;;
57899;SDS011;60605;53.716;19.940;2023-04-03T02:09:49;2.30;;;1.70;;
57899;SDS011;60605;53.716;19.940;2023-04-03T02:14:51;2.70;;;1.80;;
57899;SDS011;60605;53.716;19.940;2023-04-03T02:19:53;2.40;;;1.70;;
57899;SDS011;60605;53.716;19.940;2023-04-03T02:24:54;4.70;;;2.00;;
57899;SDS011;60605;53.716;19.940;2023-04-03T02:29:57;1.80;;;1.70;;
57899;SDS011;60605;53.716;19.940;2023-04-03T02:34:58;1.80;;;1.70;;
57899;SDS011;60605;53.716;19.940;2023-04-03T02:40:00;2.60;;;2.10;;
57899;SDS011;60605;53.716;19.940;2023-04-03T02:45:03;3.90;;;1.80;;
57899;SDS011;60605;53.716;19.940;2023-04-03T02:50:06;2.80;;;1.90;;
57899;SDS011;60605;53.716;19.940;2023-04-03T02:55:08;4.70;;;2.00;;
57899;SDS011;60605;53.716;19.940;2023-04-03T03:00:11;5.10;;;2.10;;
57899;SDS011;60605;53.716;19.940;2023-04-03T03:10:16;4.50;;;2.10;;
57899;SDS011;60605;53.716;19.940;2023-04-03T03:15:17;2.50;;;1.70;;
57899;SDS011;60605;53.716;19.940;2023-04-03T03:20:20;3.10;;;1.70;;
57899;SDS011;60605;53.716;19.940;2023-04-03T03:25:22;3.80;;;1.60;;
57899;SDS011;60605;53.716;19.940;2023-04-03T03:30:24;3.30;;;2.00;;
57899;SDS011;60605;53.716;19.940;2023-04-03T03:35:26;5.80;;;2.50;;
57899;SDS011;60605;53.716;19.940;2023-04-03T03:40:28;2.60;;;1.80;;
57899;SDS011;60605;53.716;19.940;2023-04-03T03:45:30;5.10;;;2.00;;
57899;SDS011;60605;53.716;19.940;2023-04-03T03:50:32;2.30;;;2.00;;
57899;SDS011;60605;53.716;19.940;2023-04-03T03:55:34;8.00;;;3.10;;
57899;SDS011;60605;53.716;19.940;2023-04-03T04:00:37;18.90;;;7.70;;
57899;SDS011;60605;53.716;19.940;2023-04-03T04:05:39;22.40;;;7.40;;
57899;SDS011;60605;53.716;19.940;2023-04-03T04:10:41;5.80;;;3.70;;
57899;SDS011;60605;53.716;19.940;2023-04-03T04:15:43;5.80;;;3.30;;
57899;SDS011;60605;53.716;19.940;2023-04-03T04:20:45;3.10;;;2.30;;
57899;SDS011;60605;53.716;19.940;2023-04-03T04:25:48;3.70;;;2.10;;
57899;SDS011;60605;53.716;19.940;2023-04-03T04:30:50;4.00;;;2.20;;
57899;SDS011;60605;53.716;19.940;2023-04-03T04:35:52;3.30;;;2.90;;
57899;SDS011;60605;53.716;19.940;2023-04-03T04:40:55;1.90;;;1.80;;
57899;SDS011;60605;53.716;19.940;2023-04-03T04:46:06;2.90;;;2.30;;
57899;SDS011;60605;53.716;19.940;2023-04-03T04:51:11;4.10;;;2.00;;
57899;SDS011;60605;53.716;19.940;2023-04-03T04:56:13;1.80;;;1.70;;
57899;SDS011;60605;53.716;19.940;2023-04-03T05:01:15;9.50;;;1.50;;
57899;SDS011;60605;53.716;19.940;2023-04-03T05:06:17;3.40;;;2.40;;
57899;SDS011;60605;53.716;19.940;2023-04-03T05:11:19;21.00;;;5.30;;
57899;SDS011;60605;53.716;19.940;2023-04-03T05:16:25;7.10;;;2.10;;
57899;SDS011;60605;53.716;19.940;2023-04-03T05:21:28;2.80;;;1.80;;
57899;SDS011;60605;53.716;19.940;2023-04-03T05:26:34;11.30;;;5.40;;
57899;SDS011;60605;53.716;19.940;2023-04-03T05:31:36;3.60;;;2.10;;
57899;SDS011;60605;53.716;19.940;2023-04-03T05:36:38;18.90;;;9.80;;
57899;SDS011;60605;53.716;19.940;2023-04-03T05:41:40;5.40;;;2.50;;
57899;SDS011;60605;53.716;19.940;2023-04-03T05:46:42;3.60;;;2.10;;
57899;SDS011;60605;53.716;19.940;2023-04-03T05:51:44;7.40;;;5.30;;
57899;SDS011;60605;53.716;19.940;2023-04-03T05:56:46;3.80;;;2.60;;
57899;SDS011;60605;53.716;19.940;2023-04-03T06:01:48;6.20;;;3.60;;
57899;SDS011;60605;53.716;19.940;2023-04-03T06:11:54;7.80;;;6.10;;
57899;SDS011;60605;53.716;19.940;2023-04-03T06:16:57;4.30;;;2.60;;
57899;SDS011;60605;53.716;19.940;2023-04-03T06:22:01;4.20;;;2.60;;
57899;SDS011;60605;53.716;19.940;2023-04-03T06:27:04;4.80;;;3.70;;
57899;SDS011;60605;53.716;19.940;2023-04-03T06:32:07;5.90;;;3.80;;
57899;SDS011;60605;53.716;19.940;2023-04-03T06:37:15;3.80;;;2.80;;
57899;SDS011;60605;53.716;19.940;2023-04-03T06:42:19;3.40;;;2.80;;
57899;SDS011;60605;53.716;19.940;2023-04-03T06:47:21;2.90;;;2.20;;
57899;SDS011;60605;53.716;19.940;2023-04-03T06:52:23;3.20;;;2.10;;
57899;SDS011;60605;53.716;19.940;2023-04-03T06:57:25;1.60;;;1.50;;
57899;SDS011;60605;53.716;19.940;2023-04-03T07:07:29;4.00;;;2.80;;
57899;SDS011;60605;53.716;19.940;2023-04-03T07:12:31;3.30;;;2.70;;
57899;SDS011;60605;53.716;19.940;2023-04-03T07:17:33;2.40;;;2.20;;
57899;SDS011;60605;53.716;19.940;2023-04-03T07:22:35;2.70;;;2.10;;
57899;SDS011;60605;53.716;19.940;2023-04-03T07:27:37;3.20;;;1.80;;
57899;SDS011;60605;53.716;19.940;2023-04-03T07:32:40;5.40;;;3.60;;
57899;SDS011;60605;53.716;19.940;2023-04-03T07:37:42;5.60;;;3.10;;
57899;SDS011;60605;53.716;19.940;2023-04-03T07:42:44;8.00;;;7.20;;
57899;SDS011;60605;53.716;19.940;2023-04-03T07:47:47;3.60;;;2.20;;
57899;SDS011;60605;53.716;19.940;2023-04-03T07:52:49;2.40;;;1.70;;
57899;SDS011;60605;53.716;19.940;2023-04-03T07:57:52;3.40;;;2.90;;
57899;SDS011;60605;53.716;19.940;2023-04-03T08:02:53;6.60;;;4.70;;
57899;SDS011;60605;53.716;19.940;2023-04-03T08:07:56;3.50;;;3.20;;
57899;SDS011;60605;53.716;19.940;2023-04-03T08:12:57;2.20;;;1.70;;
57899;SDS011;60605;53.716;19.940;2023-04-03T08:18:00;2.50;;;2.20;;
57899;SDS011;60605;53.716;19.940;2023-04-03T08:23:02;2.70;;;2.10;;
57899;SDS011;60605;53.716;19.940;2023-04-03T08:28:05;2.90;;;2.20;;
57899;SDS011;60605;53.716;19.940;2023-04-03T08:33:08;2.70;;;1.90;;
57899;SDS011;60605;53.716;19.940;2023-04-03T08:38:11;2.20;;;1.90;;
57899;SDS011;60605;53.716;19.940;2023-04-03T08:48:26;3.50;;;1.80;;
57899;SDS011;60605;53.716;19.940;2023-04-03T08:53:33;2.00;;;1.60;;
57899;SDS011;60605;53.716;19.940;2023-04-03T08:58:43;2.60;;;1.70;;
57899;SDS011;60605;53.716;19.940;2023-04-03T09:03:54;2.90;;;2.20;;
57899;SDS011;60605;53.716;19.940;2023-04-03T09:19:51;4.10;;;2.90;;
57899;SDS011;60605;53.716;19.940;2023-04-03T09:30:15;2.90;;;2.60;;
57899;SDS011;60605;53.716;19.940;2023-04-03T09:41:02;3.40;;;1.60;;
57899;SDS011;60605;53.716;19.940;2023-04-03T09:46:20;2.50;;;2.30;;
57899;SDS011;60605;53.716;19.940;2023-04-03T09:51:30;3.50;;;2.10;;
57899;SDS011;60605;53.716;19.940;2023-04-03T09:56:32;7.10;;;4.90;;
57899;SDS011;60605;53.716;19.940;2023-04-03T10:01:37;3.00;;;2.60;;
57899;SDS011;60605;53.716;19.940;2023-04-03T10:06:42;2.70;;;2.00;;
57899;SDS011;60605;53.716;19.940;2023-04-03T10:11:58;2.70;;;2.50;;
57899;SDS011;60605;53.716;19.940;2023-04-03T10:17:05;3.40;;;3.10;;
57899;SDS011;60605;53.716;19.940;2023-04-03T10:27:36;3.50;;;2.50;;
57899;SDS011;60605;53.716;19.940;2023-04-03T10:43:33;1.90;;;1.80;;
57899;SDS011;60605;53.716;19.940;2023-04-03T11:04:20;4.30;;;1.80;;
57899;SDS011;60605;53.716;19.940;2023-04-03T11:09:30;2.80;;;1.90;;
57899;SDS011;60605;53.716;19.940;2023-04-03T11:14:38;4.10;;;2.70;;
57899;SDS011;60605;53.716;19.940;2023-04-03T11:25:04;2.30;;;2.10;;
57899;SDS011;60605;53.716;19.940;2023-04-03T11:36:03;2.30;;;2.10;;
57899;SDS011;60605;53.716;19.940;2023-04-03T11:41:29;5.80;;;2.50;;
57899;SDS011;60605;53.716;19.940;2023-04-03T11:46:50;2.10;;;2.00;;
57899;SDS011;60605;53.716;19.940;2023-04-03T11:51:59;2.60;;;2.20;;
57899;SDS011;60605;53.716;19.940;2023-04-03T11:57:09;2.30;;;1.90;;
57899;SDS011;60605;53.716;19.940;2023-04-03T12:02:41;1.60;;;1.50;;
57899;SDS011;60605;53.716;19.940;2023-04-03T12:13:32;2.60;;;1.80;;
57899;SDS011;60605;53.716;19.940;2023-04-03T12:18:44;3.30;;;1.50;;
57899;SDS011;60605;53.716;19.940;2023-04-03T12:29:24;3.40;;;1.70;;
57899;SDS011;60605;53.716;19.940;2023-04-03T12:45:44;5.50;;;2.80;;
57899;SDS011;60605;53.716;19.940;2023-04-03T12:50:54;6.00;;;2.60;;
57899;SDS011;60605;53.716;19.940;2023-04-03T12:56:18;5.50;;;3.20;;
57899;SDS011;60605;53.716;19.940;2023-04-03T13:01:33;2.70;;;2.20;;
57899;SDS011;60605;53.716;19.940;2023-04-03T13:06:39;1.90;;;1.80;;
57899;SDS011;60605;53.716;19.940;2023-04-03T13:11:43;2.70;;;2.50;;
57899;SDS011;60605;53.716;19.940;2023-04-03T13:16:54;2.10;;;2.00;;
57899;SDS011;60605;53.716;19.940;2023-04-03T13:22:07;1.80;;;1.60;;
57899;SDS011;60605;53.716;19.940;2023-04-03T13:27:21;4.20;;;2.10;;
57899;SDS011;60605;53.716;19.940;2023-04-03T13:32:24;4.20;;;2.90;;
57899;SDS011;60605;53.716;19.940;2023-04-03T13:37:31;3.80;;;2.80;;
57899;SDS011;60605;53.716;19.940;2023-04-03T13:42:37;4.30;;;2.00;;
57899;SDS011;60605;53.716;19.940;2023-04-03T13:47:43;6.50;;;3.00;;
57899;SDS011;60605;53.716;19.940;2023-04-03T13:53:08;10.70;;;5.80;;
57899;SDS011;60605;53.716;19.940;2023-04-03T14:08:35;8.70;;;2.90;;
57899;SDS011;60605;53.716;19.940;2023-04-03T14:13:44;25.00;;;10.60;;
57899;SDS011;60605;53.716;19.940;2023-04-03T14:18:49;4.50;;;4.10;;
57899;SDS011;60605;53.716;19.940;2023-04-03T14:23:52;8.10;;;5.30;;
57899;SDS011;60605;53.716;19.940;2023-04-03T14:28:54;11.80;;;6.90;;
57899;SDS011;60605;53.716;19.940;2023-04-03T14:33:56;7.80;;;4.50;;
57899;SDS011;60605;53.716;19.940;2023-04-03T14:38:58;12.10;;;6.80;;
57899;SDS011;60605;53.716;19.940;2023-04-03T14:44:04;6.90;;;4.10;;
57899;SDS011;60605;53.716;19.940;2023-04-03T14:49:12;9.30;;;5.10;;
57899;SDS011;60605;53.716;19.940;2023-04-03T14:54:18;13.40;;;3.70;;
57899;SDS011;60605;53.716;19.940;2023-04-03T14:59:26;14.60;;;5.20;;
57899;SDS011;60605;53.716;19.940;2023-04-03T15:04:29;4.30;;;3.70;;
57899;SDS011;60605;53.716;19.940;2023-04-03T15:09:32;5.10;;;3.80;;
57899;SDS011;60605;53.716;19.940;2023-04-03T15:14:34;20.90;;;10.50;;
57899;SDS011;60605;53.716;19.940;2023-04-03T15:19:38;7.40;;;3.80;;
57899;SDS011;60605;53.716;19.940;2023-04-03T15:24:41;9.80;;;3.70;;
57899;SDS011;60605;53.716;19.940;2023-04-03T15:29:44;9.80;;;4.70;;
57899;SDS011;60605;53.716;19.940;2023-04-03T15:39:49;15.00;;;8.30;;
57899;SDS011;60605;53.716;19.940;2023-04-03T15:44:51;13.40;;;7.30;;
57899;SDS011;60605;53.716;19.940;2023-04-03T15:49:53;9.10;;;5.80;;
57899;SDS011;60605;53.716;19.940;2023-04-03T15:54:56;16.00;;;9.70;;
57899;SDS011;60605;53.716;19.940;2023-04-03T16:05:02;18.80;;;10.20;;
57899;SDS011;60605;53.716;19.940;2023-04-03T16:10:06;22.90;;;10.80;;
57899;SDS011;60605;53.716;19.940;2023-04-03T16:15:10;9.50;;;5.10;;
57899;SDS011;60605;53.716;19.940;2023-04-03T16:20:14;19.60;;;8.00;;
57899;SDS011;60605;53.716;19.940;2023-04-03T16:25:18;24.80;;;13.00;;
57899;SDS011;60605;53.716;19.940;2023-04-03T16:30:21;12.10;;;5.30;;
57899;SDS011;60605;53.716;19.940;2023-04-03T16:35:24;6.10;;;4.00;;
57899;SDS011;60605;53.716;19.940;2023-04-03T16:40:26;9.10;;;4.20;;
57899;SDS011;60605;53.716;19.940;2023-04-03T16:45:28;28.40;;;12.80;;
57899;SDS011;60605;53.716;19.940;2023-04-03T16:50:30;13.40;;;6.80;;
57899;SDS011;60605;53.716;19.940;2023-04-03T16:55:32;6.90;;;4.60;;
57899;SDS011;60605;53.716;19.940;2023-04-03T17:00:34;14.30;;;7.90;;
57899;SDS011;60605;53.716;19.940;2023-04-03T17:05:37;8.60;;;5.60;;
57899;SDS011;60605;53.716;19.940;2023-04-03T17:10:40;11.90;;;7.70;;
57899;SDS011;60605;53.716;19.940;2023-04-03T17:15:42;10.20;;;4.90;;
57899;SDS011;60605;53.716;19.940;2023-04-03T17:20:44;18.80;;;8.40;;
57899;SDS011;60605;53.716;19.940;2023-04-03T17:25:46;13.40;;;6.70;;
57899;SDS011;60605;53.716;19.940;2023-04-03T17:30:49;15.60;;;7.10;;
57899;SDS011;60605;53.716;19.940;2023-04-03T17:35:52;10.20;;;6.00;;
57899;SDS011;60605;53.716;19.940;2023-04-03T17:40:57;13.00;;;6.90;;
57899;SDS011;60605;53.716;19.940;2023-04-03T17:46:04;16.10;;;8.80;;
57899;SDS011;60605;53.716;19.940;2023-04-03T17:51:10;19.70;;;9.60;;
57899;SDS011;60605;53.716;19.940;2023-04-03T17:56:24;19.70;;;9.40;;
57899;SDS011;60605;53.716;19.940;2023-04-03T18:01:31;22.70;;;8.60;;
57899;SDS011;60605;53.716;19.940;2023-04-03T18:06:40;6.60;;;4.70;;
57899;SDS011;60605;53.716;19.940;2023-04-03T18:11:45;9.90;;;5.30;;
57899;SDS011;60605;53.716;19.940;2023-04-03T18:16:48;23.90;;;11.20;;
57899;SDS011;60605;53.716;19.940;2023-04-03T18:21:51;24.10;;;9.30;;
57899;SDS011;60605;53.716;19.940;2023-04-03T18:26:57;15.90;;;5.30;;
57899;SDS011;60605;53.716;19.940;2023-04-03T18:32:03;8.40;;;4.90;;
57899;SDS011;60605;53.716;19.940;2023-04-03T18:37:08;8.10;;;4.40;;
57899;SDS011;60605;53.716;19.940;2023-04-03T18:42:12;5.30;;;3.80;;
57899;SDS011;60605;53.716;19.940;2023-04-03T18:47:16;15.00;;;9.10;;
57899;SDS011;60605;53.716;19.940;2023-04-03T18:52:19;20.50;;;12.60;;
57899;SDS011;60605;53.716;19.940;2023-04-03T18:57:22;20.70;;;10.90;;
57899;SDS011;60605;53.716;19.940;2023-04-03T19:02:27;19.10;;;10.80;;
57899;SDS011;60605;53.716;19.940;2023-04-03T19:07:31;13.00;;;7.80;;
57899;SDS011;60605;53.716;19.940;2023-04-03T19:12:33;6.70;;;5.00;;
57899;SDS011;60605;53.716;19.940;2023-04-03T19:17:36;6.90;;;5.10;;
57899;SDS011;60605;53.716;19.940;2023-04-03T19:22:39;26.10;;;11.50;;
57899;SDS011;60605;53.716;19.940;2023-04-03T19:27:42;27.40;;;13.20;;
57899;SDS011;60605;53.716;19.940;2023-04-03T19:32:45;17.30;;;9.50;;
57899;SDS011;60605;53.716;19.940;2023-04-03T19:37:47;31.10;;;17.90;;
57899;SDS011;60605;53.716;19.940;2023-04-03T19:42:51;27.00;;;13.20;;
57899;SDS011;60605;53.716;19.940;2023-04-03T19:47:55;40.50;;;15.50;;
57899;SDS011;60605;53.716;19.940;2023-04-03T19:53:02;23.10;;;13.50;;
57899;SDS011;60605;53.716;19.940;2023-04-03T19:58:04;14.50;;;7.40;;
57899;SDS011;60605;53.716;19.940;2023-04-03T20:03:09;8.10;;;4.60;;
57899;SDS011;60605;53.716;19.940;2023-04-03T20:08:11;9.60;;;5.60;;
57899;SDS011;60605;53.716;19.940;2023-04-03T20:13:14;4.50;;;3.50;;
57899;SDS011;60605;53.716;19.940;2023-04-03T20:18:18;5.90;;;3.60;;
57899;SDS011;60605;53.716;19.940;2023-04-03T20:28:24;24.60;;;12.10;;
57899;SDS011;60605;53.716;19.940;2023-04-03T20:38:30;19.70;;;9.60;;
57899;SDS011;60605;53.716;19.940;2023-04-03T20:43:32;9.50;;;5.20;;
57899;SDS011;60605;53.716;19.940;2023-04-03T20:48:34;7.00;;;4.00;;
57899;SDS011;60605;53.716;19.940;2023-04-03T20:53:37;9.00;;;3.20;;
57899;SDS011;60605;53.716;19.940;2023-04-03T21:20:09;4.80;;;3.20;;
57899;SDS011;60605;53.716;19.940;2023-04-03T21:25:12;4.50;;;2.90;;
57899;SDS011;60605;53.716;19.940;2023-04-03T21:30:14;6.80;;;2.30;;
57899;SDS011;60605;53.716;19.940;2023-04-03T21:35:16;4.20;;;2.60;;
57899;SDS011;60605;53.716;19.940;2023-04-03T21:40:18;8.50;;;3.90;;
57899;SDS011;60605;53.716;19.940;2023-04-03T21:45:21;10.60;;;7.50;;
57899;SDS011;60605;53.716;19.940;2023-04-03T21:50:23;4.10;;;3.00;;
57899;SDS011;60605;53.716;19.940;2023-04-03T21:55:26;6.50;;;3.80;;
57899;SDS011;60605;53.716;19.940;2023-04-03T22:00:27;5.30;;;2.40;;
57899;SDS011;60605;53.716;19.940;2023-04-03T22:05:30;6.90;;;6.20;;
57899;SDS011;60605;53.716;19.940;2023-04-03T22:10:32;8.80;;;6.10;;
57899;SDS011;60605;53.716;19.940;2023-04-03T22:15:37;6.20;;;4.70;;
57899;SDS011;60605;53.716;19.940;2023-04-03T22:20:47;5.90;;;4.80;;
57899;SDS011;60605;53.716;19.940;2023-04-03T22:26:23;6.30;;;4.80;;
57899;SDS011;60605;53.716;19.940;2023-04-03T22:31:18;9.70;;;5.90;;
57899;SDS011;60605;53.716;19.940;2023-04-03T22:36:21;3.80;;;2.90;;
57899;SDS011;60605;53.716;19.940;2023-04-03T22:41:23;6.20;;;5.30;;
57899;SDS011;60605;53.716;19.940;2023-04-03T22:46:25;4.50;;;2.70;;
57899;SDS011;60605;53.716;19.940;2023-04-03T22:51:29;4.60;;;3.10;;
57899;SDS011;60605;53.716;19.940;2023-04-03T22:56:31;6.30;;;4.40;;
57899;SDS011;60605;53.716;19.940;2023-04-03T23:01:34;15.10;;;10.70;;
57899;SDS011;60605;53.716;19.940;2023-04-03T23:06:39;29.10;;;19.20;;
57899;SDS011;60605;53.716;19.940;2023-04-03T23:11:41;24.50;;;16.00;;
57899;SDS011;60605;53.716;19.940;2023-04-03T23:16:44;13.60;;;8.70;;
57899;SDS011;60605;53.716;19.940;2023-04-03T23:26:49;6.70;;;4.40;;
57899;SDS011;60605;53.716;19.940;2023-04-03T23:31:51;7.00;;;3.90;;
57899;SDS011;60605;53.716;19.940;2023-04-03T23:36:53;7.60;;;4.20;;
57899;SDS011;60605;53.716;19.940;2023-04-03T23:41:55;8.50;;;6.00;;
57899;SDS011;60605;53.716;19.940;2023-04-03T23:46:57;12.30;;;6.10;;
57899;SDS011;60605;53.716;19.940;2023-04-03T23:51:59;7.00;;;4.60;;
57899;SDS011;60605;53.716;19.940;2023-04-03T23:57:01;6.30;;;5.00;;
